sensor_id;sensor_type;location;lat;lon;timestamp;P1;durP1;ratioP1;P2;durP2;ratioP2
5871;SDS011;2962;51.312;7.378;2023-04-25T00:01:32;17.90;;;4.67;;
5871;SDS011;2962;51.312;7.378;2023-04-25T00:04:01;15.40;;;5.10;;
5871;SDS011;2962;51.312;7.378;2023-04-25T00:06:27;14.88;;;5.72;;
5871;SDS011;2962;51.312;7.378;2023-04-25T00:08:54;12.63;;;5.47;;
5871;SDS011;2962;51.312;7.378;2023-04-25T00:11:21;18.45;;;6.10;;
5871;SDS011;2962;51.312;7.378;2023-04-25T00:13:47;15.37;;;5.97;;
5871;SDS011;2962;51.312;7.378;2023-04-25T00:16:13;13.43;;;5.82;;
5871;SDS011;2962;51.312;7.378;2023-04-25T00:18:41;10.23;;;4.95;;
5871;SDS011;2962;51.312;7.378;2023-04-25T00:21:06;11.65;;;5.00;;
5871;SDS011;2962;51.312;7.378;2023-04-25T00:23:32;8.17;;;4.73;;
5871;SDS011;2962;51.312;7.378;2023-04-25T00:25:57;11.00;;;4.90;;
5871;SDS011;2962;51.312;7.378;2023-04-25T00:28:23;12.60;;;4.30;;
5871;SDS011;2962;51.312;7.378;2023-04-25T00:30:48;9.87;;;3.77;;
5871;SDS011;2962;51.312;7.378;2023-04-25T00:33:13;13.83;;;5.33;;
5871;SDS011;2962;51.312;7.378;2023-04-25T00:35:38;10.87;;;6.27;;
5871;SDS011;2962;51.312;7.378;2023-04-25T00:38:04;13.07;;;5.67;;
5871;SDS011;2962;51.312;7.378;2023-04-25T00:40:29;17.37;;;6.13;;
5871;SDS011;2962;51.312;7.378;2023-04-25T00:42:55;19.77;;;4.63;;
5871;SDS011;2962;51.312;7.378;2023-04-25T00:45:20;21.37;;;5.20;;
5871;SDS011;2962;51.312;7.378;2023-04-25T00:47:46;21.00;;;6.43;;
5871;SDS011;2962;51.312;7.378;2023-04-25T00:50:12;10.95;;;6.47;;
5871;SDS011;2962;51.312;7.378;2023-04-25T00:52:38;21.03;;;6.30;;
5871;SDS011;2962;51.312;7.378;2023-04-25T00:55:06;11.25;;;4.78;;
5871;SDS011;2962;51.312;7.378;2023-04-25T00:57:33;8.32;;;4.50;;
5871;SDS011;2962;51.312;7.378;2023-04-25T00:59:58;15.70;;;7.43;;
5871;SDS011;2962;51.312;7.378;2023-04-25T01:02:24;10.43;;;5.47;;
5871;SDS011;2962;51.312;7.378;2023-04-25T01:04:50;10.70;;;6.40;;
5871;SDS011;2962;51.312;7.378;2023-04-25T01:07:16;17.30;;;7.57;;
5871;SDS011;2962;51.312;7.378;2023-04-25T01:09:41;6.77;;;5.93;;
5871;SDS011;2962;51.312;7.378;2023-04-25T01:12:07;13.57;;;6.57;;
5871;SDS011;2962;51.312;7.378;2023-04-25T01:14:32;12.50;;;5.67;;
5871;SDS011;2962;51.312;7.378;2023-04-25T01:16:58;16.17;;;4.67;;
5871;SDS011;2962;51.312;7.378;2023-04-25T01:19:24;8.85;;;7.00;;
5871;SDS011;2962;51.312;7.378;2023-04-25T01:21:49;10.67;;;7.20;;
5871;SDS011;2962;51.312;7.378;2023-04-25T01:24:15;15.45;;;6.70;;
5871;SDS011;2962;51.312;7.378;2023-04-25T01:26:41;19.07;;;7.60;;
5871;SDS011;2962;51.312;7.378;2023-04-25T01:29:14;11.55;;;7.35;;
5871;SDS011;2962;51.312;7.378;2023-04-25T01:31:41;9.95;;;7.55;;
5871;SDS011;2962;51.312;7.378;2023-04-25T01:34:07;14.43;;;7.53;;
5871;SDS011;2962;51.312;7.378;2023-04-25T01:36:32;5.70;;;5.23;;
5871;SDS011;2962;51.312;7.378;2023-04-25T01:38:59;15.48;;;8.15;;
5871;SDS011;2962;51.312;7.378;2023-04-25T01:41:25;13.73;;;9.68;;
5871;SDS011;2962;51.312;7.378;2023-04-25T01:43:51;12.60;;;7.77;;
5871;SDS011;2962;51.312;7.378;2023-04-25T01:46:16;19.47;;;7.40;;
5871;SDS011;2962;51.312;7.378;2023-04-25T01:48:42;14.10;;;8.47;;
5871;SDS011;2962;51.312;7.378;2023-04-25T01:51:07;18.27;;;7.80;;
5871;SDS011;2962;51.312;7.378;2023-04-25T01:53:32;14.63;;;8.73;;
5871;SDS011;2962;51.312;7.378;2023-04-25T01:55:58;16.10;;;9.67;;
5871;SDS011;2962;51.312;7.378;2023-04-25T01:58:24;17.73;;;9.27;;
5871;SDS011;2962;51.312;7.378;2023-04-25T02:00:49;12.47;;;8.60;;
5871;SDS011;2962;51.312;7.378;2023-04-25T02:03:14;25.10;;;11.57;;
5871;SDS011;2962;51.312;7.378;2023-04-25T02:05:40;14.90;;;9.50;;
5871;SDS011;2962;51.312;7.378;2023-04-25T02:08:06;22.57;;;11.23;;
5871;SDS011;2962;51.312;7.378;2023-04-25T02:10:32;24.02;;;11.93;;
5871;SDS011;2962;51.312;7.378;2023-04-25T02:12:58;25.27;;;11.95;;
5871;SDS011;2962;51.312;7.378;2023-04-25T02:15:23;20.33;;;11.23;;
5871;SDS011;2962;51.312;7.378;2023-04-25T02:17:49;19.40;;;11.37;;
5871;SDS011;2962;51.312;7.378;2023-04-25T02:20:14;27.00;;;11.30;;
5871;SDS011;2962;51.312;7.378;2023-04-25T02:22:41;20.52;;;10.43;;
5871;SDS011;2962;51.312;7.378;2023-04-25T02:25:07;23.92;;;11.15;;
5871;SDS011;2962;51.312;7.378;2023-04-25T02:27:34;14.82;;;9.45;;
5871;SDS011;2962;51.312;7.378;2023-04-25T02:29:59;18.73;;;11.00;;
5871;SDS011;2962;51.312;7.378;2023-04-25T02:32:24;15.13;;;9.80;;
5871;SDS011;2962;51.312;7.378;2023-04-25T02:34:50;23.20;;;11.20;;
5871;SDS011;2962;51.312;7.378;2023-04-25T02:37:15;22.50;;;13.00;;
5871;SDS011;2962;51.312;7.378;2023-04-25T02:39:40;18.00;;;10.87;;
5871;SDS011;2962;51.312;7.378;2023-04-25T02:42:06;23.03;;;12.63;;
5871;SDS011;2962;51.312;7.378;2023-04-25T02:44:31;21.27;;;12.17;;
5871;SDS011;2962;51.312;7.378;2023-04-25T02:46:56;23.23;;;9.60;;
5871;SDS011;2962;51.312;7.378;2023-04-25T02:49:22;21.60;;;12.40;;
5871;SDS011;2962;51.312;7.378;2023-04-25T02:51:47;24.97;;;14.07;;
5871;SDS011;2962;51.312;7.378;2023-04-25T02:54:12;20.70;;;11.40;;
5871;SDS011;2962;51.312;7.378;2023-04-25T02:56:38;20.97;;;11.60;;
5871;SDS011;2962;51.312;7.378;2023-04-25T02:59:03;18.13;;;11.30;;
5871;SDS011;2962;51.312;7.378;2023-04-25T03:01:28;25.23;;;12.10;;
5871;SDS011;2962;51.312;7.378;2023-04-25T03:03:54;20.13;;;11.77;;
5871;SDS011;2962;51.312;7.378;2023-04-25T03:06:19;18.10;;;12.10;;
5871;SDS011;2962;51.312;7.378;2023-04-25T03:08:45;23.00;;;11.40;;
5871;SDS011;2962;51.312;7.378;2023-04-25T03:11:10;27.43;;;12.20;;
5871;SDS011;2962;51.312;7.378;2023-04-25T03:13:35;22.57;;;12.63;;
5871;SDS011;2962;51.312;7.378;2023-04-25T03:16:01;26.57;;;13.03;;
5871;SDS011;2962;51.312;7.378;2023-04-25T03:18:26;18.63;;;12.10;;
5871;SDS011;2962;51.312;7.378;2023-04-25T03:20:51;17.50;;;11.00;;
5871;SDS011;2962;51.312;7.378;2023-04-25T03:23:17;19.83;;;10.00;;
5871;SDS011;2962;51.312;7.378;2023-04-25T03:25:42;17.17;;;10.37;;
5871;SDS011;2962;51.312;7.378;2023-04-25T03:28:07;19.83;;;9.90;;
5871;SDS011;2962;51.312;7.378;2023-04-25T03:30:33;22.30;;;11.03;;
5871;SDS011;2962;51.312;7.378;2023-04-25T03:32:58;22.30;;;10.13;;
5871;SDS011;2962;51.312;7.378;2023-04-25T03:35:24;26.03;;;8.90;;
5871;SDS011;2962;51.312;7.378;2023-04-25T03:37:49;22.33;;;10.50;;
5871;SDS011;2962;51.312;7.378;2023-04-25T03:40:15;15.70;;;9.50;;
5871;SDS011;2962;51.312;7.378;2023-04-25T03:42:40;23.07;;;11.60;;
5871;SDS011;2962;51.312;7.378;2023-04-25T03:45:06;24.90;;;13.30;;
5871;SDS011;2962;51.312;7.378;2023-04-25T03:47:32;28.10;;;12.05;;
5871;SDS011;2962;51.312;7.378;2023-04-25T03:49:57;13.20;;;8.90;;
5871;SDS011;2962;51.312;7.378;2023-04-25T03:52:22;18.63;;;10.00;;
5871;SDS011;2962;51.312;7.378;2023-04-25T03:54:48;14.70;;;9.87;;
5871;SDS011;2962;51.312;7.378;2023-04-25T03:57:13;17.67;;;10.17;;
5871;SDS011;2962;51.312;7.378;2023-04-25T03:59:39;17.10;;;9.30;;
5871;SDS011;2962;51.312;7.378;2023-04-25T04:02:04;18.83;;;8.23;;
5871;SDS011;2962;51.312;7.378;2023-04-25T04:04:29;19.93;;;8.80;;
5871;SDS011;2962;51.312;7.378;2023-04-25T04:06:55;13.70;;;8.30;;
5871;SDS011;2962;51.312;7.378;2023-04-25T04:09:20;14.13;;;8.87;;
5871;SDS011;2962;51.312;7.378;2023-04-25T04:11:46;13.63;;;9.33;;
5871;SDS011;2962;51.312;7.378;2023-04-25T04:14:11;27.23;;;9.73;;
5871;SDS011;2962;51.312;7.378;2023-04-25T04:16:36;22.27;;;9.90;;
5871;SDS011;2962;51.312;7.378;2023-04-25T04:19:02;24.37;;;9.70;;
5871;SDS011;2962;51.312;7.378;2023-04-25T04:21:27;21.23;;;10.90;;
5871;SDS011;2962;51.312;7.378;2023-04-25T04:23:53;30.23;;;10.93;;
5871;SDS011;2962;51.312;7.378;2023-04-25T04:26:19;26.05;;;11.88;;
5871;SDS011;2962;51.312;7.378;2023-04-25T04:28:48;20.13;;;10.82;;
5871;SDS011;2962;51.312;7.378;2023-04-25T04:31:15;23.35;;;12.85;;
5871;SDS011;2962;51.312;7.378;2023-04-25T04:33:40;31.53;;;13.97;;
5871;SDS011;2962;51.312;7.378;2023-04-25T04:36:06;25.73;;;12.73;;
5871;SDS011;2962;51.312;7.378;2023-04-25T04:38:32;32.28;;;13.60;;
5871;SDS011;2962;51.312;7.378;2023-04-25T04:40:58;32.37;;;14.20;;
5871;SDS011;2962;51.312;7.378;2023-04-25T04:43:23;26.50;;;13.90;;
5871;SDS011;2962;51.312;7.378;2023-04-25T04:45:49;27.03;;;13.43;;
5871;SDS011;2962;51.312;7.378;2023-04-25T04:48:15;32.80;;;13.13;;
5871;SDS011;2962;51.312;7.378;2023-04-25T04:50:42;33.05;;;12.18;;
5871;SDS011;2962;51.312;7.378;2023-04-25T04:53:09;27.23;;;12.88;;
5871;SDS011;2962;51.312;7.378;2023-04-25T04:55:35;26.23;;;12.87;;
5871;SDS011;2962;51.312;7.378;2023-04-25T04:58:00;40.20;;;12.40;;
5871;SDS011;2962;51.312;7.378;2023-04-25T05:00:26;15.53;;;8.37;;
5871;SDS011;2962;51.312;7.378;2023-04-25T05:02:52;27.30;;;7.43;;
5871;SDS011;2962;51.312;7.378;2023-04-25T05:05:18;14.20;;;7.10;;
5871;SDS011;2962;51.312;7.378;2023-04-25T05:07:43;20.77;;;5.23;;
5871;SDS011;2962;51.312;7.378;2023-04-25T05:10:08;15.67;;;5.20;;
5871;SDS011;2962;51.312;7.378;2023-04-25T05:12:34;8.30;;;3.87;;
5871;SDS011;2962;51.312;7.378;2023-04-25T05:14:59;11.13;;;4.20;;
5871;SDS011;2962;51.312;7.378;2023-04-25T05:17:25;20.63;;;3.97;;
5871;SDS011;2962;51.312;7.378;2023-04-25T05:19:50;7.53;;;3.80;;
5871;SDS011;2962;51.312;7.378;2023-04-25T05:22:15;10.43;;;3.10;;
5871;SDS011;2962;51.312;7.378;2023-04-25T05:24:41;10.10;;;4.73;;
5871;SDS011;2962;51.312;7.378;2023-04-25T05:27:06;13.20;;;4.17;;
5871;SDS011;2962;51.312;7.378;2023-04-25T05:29:31;18.80;;;6.30;;
5871;SDS011;2962;51.312;7.378;2023-04-25T05:31:57;8.20;;;5.50;;
5871;SDS011;2962;51.312;7.378;2023-04-25T05:34:22;9.13;;;4.30;;
5871;SDS011;2962;51.312;7.378;2023-04-25T05:36:47;7.30;;;4.30;;
5871;SDS011;2962;51.312;7.378;2023-04-25T05:39:14;14.30;;;5.20;;
5871;SDS011;2962;51.312;7.378;2023-04-25T05:41:43;10.63;;;4.32;;
5871;SDS011;2962;51.312;7.378;2023-04-25T05:44:08;6.10;;;3.30;;
5871;SDS011;2962;51.312;7.378;2023-04-25T05:46:34;6.20;;;4.00;;
5871;SDS011;2962;51.312;7.378;2023-04-25T05:48:59;11.97;;;3.90;;
5871;SDS011;2962;51.312;7.378;2023-04-25T05:51:25;10.50;;;3.60;;
5871;SDS011;2962;51.312;7.378;2023-04-25T05:53:50;12.17;;;4.37;;
5871;SDS011;2962;51.312;7.378;2023-04-25T05:56:16;12.57;;;5.00;;
5871;SDS011;2962;51.312;7.378;2023-04-25T05:58:42;9.83;;;4.00;;
5871;SDS011;2962;51.312;7.378;2023-04-25T06:01:07;7.93;;;5.10;;
5871;SDS011;2962;51.312;7.378;2023-04-25T06:03:33;15.82;;;5.82;;
5871;SDS011;2962;51.312;7.378;2023-04-25T06:05:59;17.90;;;6.07;;
5871;SDS011;2962;51.312;7.378;2023-04-25T06:08:24;18.10;;;6.30;;
5871;SDS011;2962;51.312;7.378;2023-04-25T06:10:49;15.83;;;6.43;;
5871;SDS011;2962;51.312;7.378;2023-04-25T06:13:15;17.40;;;6.70;;
5871;SDS011;2962;51.312;7.378;2023-04-25T06:15:40;17.07;;;6.80;;
5871;SDS011;2962;51.312;7.378;2023-04-25T06:18:06;11.00;;;6.07;;
5871;SDS011;2962;51.312;7.378;2023-04-25T06:20:31;23.37;;;9.83;;
5871;SDS011;2962;51.312;7.378;2023-04-25T06:22:57;14.67;;;6.97;;
5871;SDS011;2962;51.312;7.378;2023-04-25T06:25:22;24.83;;;9.03;;
5871;SDS011;2962;51.312;7.378;2023-04-25T06:27:47;21.97;;;8.07;;
5871;SDS011;2962;51.312;7.378;2023-04-25T06:30:13;19.20;;;8.63;;
5871;SDS011;2962;51.312;7.378;2023-04-25T06:32:39;28.23;;;9.57;;
5871;SDS011;2962;51.312;7.378;2023-04-25T06:35:04;22.97;;;9.37;;
5871;SDS011;2962;51.312;7.378;2023-04-25T06:37:30;21.57;;;10.37;;
5871;SDS011;2962;51.312;7.378;2023-04-25T06:39:55;21.77;;;9.10;;
5871;SDS011;2962;51.312;7.378;2023-04-25T06:42:21;22.50;;;10.10;;
5871;SDS011;2962;51.312;7.378;2023-04-25T06:44:46;33.30;;;11.50;;
5871;SDS011;2962;51.312;7.378;2023-04-25T06:47:11;26.00;;;11.40;;
5871;SDS011;2962;51.312;7.378;2023-04-25T06:49:37;22.80;;;10.13;;
5871;SDS011;2962;51.312;7.378;2023-04-25T06:52:02;21.63;;;10.80;;
5871;SDS011;2962;51.312;7.378;2023-04-25T06:54:28;25.10;;;10.97;;
5871;SDS011;2962;51.312;7.378;2023-04-25T06:56:54;31.50;;;9.45;;
5871;SDS011;2962;51.312;7.378;2023-04-25T06:59:20;19.23;;;7.60;;
5871;SDS011;2962;51.312;7.378;2023-04-25T07:01:45;13.00;;;6.50;;
5871;SDS011;2962;51.312;7.378;2023-04-25T07:04:11;13.53;;;6.63;;
5871;SDS011;2962;51.312;7.378;2023-04-25T07:06:36;19.10;;;6.67;;
5871;SDS011;2962;51.312;7.378;2023-04-25T07:09:07;17.67;;;7.13;;
5871;SDS011;2962;51.312;7.378;2023-04-25T07:11:33;15.07;;;7.10;;
5871;SDS011;2962;51.312;7.378;2023-04-25T07:13:59;17.50;;;7.13;;
5871;SDS011;2962;51.312;7.378;2023-04-25T07:16:24;13.33;;;6.87;;
5871;SDS011;2962;51.312;7.378;2023-04-25T07:18:50;17.53;;;7.00;;
5871;SDS011;2962;51.312;7.378;2023-04-25T07:21:15;21.43;;;8.10;;
5871;SDS011;2962;51.312;7.378;2023-04-25T07:23:40;16.57;;;7.20;;
5871;SDS011;2962;51.312;7.378;2023-04-25T07:26:06;19.80;;;6.27;;
5871;SDS011;2962;51.312;7.378;2023-04-25T07:28:31;22.13;;;6.83;;
5871;SDS011;2962;51.312;7.378;2023-04-25T07:30:57;16.70;;;6.63;;
5871;SDS011;2962;51.312;7.378;2023-04-25T07:33:23;22.07;;;6.70;;
5871;SDS011;2962;51.312;7.378;2023-04-25T07:35:48;12.43;;;5.70;;
5871;SDS011;2962;51.312;7.378;2023-04-25T07:38:14;19.23;;;6.80;;
5871;SDS011;2962;51.312;7.378;2023-04-25T07:40:39;14.13;;;5.90;;
5871;SDS011;2962;51.312;7.378;2023-04-25T07:43:04;11.83;;;4.80;;
5871;SDS011;2962;51.312;7.378;2023-04-25T07:45:30;24.00;;;4.73;;
5871;SDS011;2962;51.312;7.378;2023-04-25T07:47:55;10.73;;;4.17;;
5871;SDS011;2962;51.312;7.378;2023-04-25T07:50:21;7.27;;;4.00;;
5871;SDS011;2962;51.312;7.378;2023-04-25T07:52:46;3.80;;;2.10;;
5871;SDS011;2962;51.312;7.378;2023-04-25T07:55:11;14.90;;;4.83;;
5871;SDS011;2962;51.312;7.378;2023-04-25T07:57:40;8.50;;;5.00;;
5871;SDS011;2962;51.312;7.378;2023-04-25T08:00:05;8.65;;;3.75;;
5871;SDS011;2962;51.312;7.378;2023-04-25T08:02:34;7.50;;;2.85;;
5871;SDS011;2962;51.312;7.378;2023-04-25T08:05:00;6.60;;;3.47;;
5871;SDS011;2962;51.312;7.378;2023-04-25T08:07:25;5.73;;;3.13;;
5871;SDS011;2962;51.312;7.378;2023-04-25T08:09:51;15.60;;;3.60;;
5871;SDS011;2962;51.312;7.378;2023-04-25T08:12:17;10.83;;;3.93;;
5871;SDS011;2962;51.312;7.378;2023-04-25T08:14:43;13.40;;;3.20;;
5871;SDS011;2962;51.312;7.378;2023-04-25T08:17:09;8.10;;;3.50;;
5871;SDS011;2962;51.312;7.378;2023-04-25T08:19:34;10.23;;;3.07;;
5871;SDS011;2962;51.312;7.378;2023-04-25T08:22:00;7.70;;;2.03;;
5871;SDS011;2962;51.312;7.378;2023-04-25T08:24:25;8.03;;;2.90;;
5871;SDS011;2962;51.312;7.378;2023-04-25T08:26:51;6.90;;;2.23;;
5871;SDS011;2962;51.312;7.378;2023-04-25T08:29:16;6.33;;;1.50;;
5871;SDS011;2962;51.312;7.378;2023-04-25T08:31:42;13.33;;;3.07;;
5871;SDS011;2962;51.312;7.378;2023-04-25T08:34:07;5.83;;;2.17;;
5871;SDS011;2962;51.312;7.378;2023-04-25T08:36:36;15.40;;;2.90;;
5871;SDS011;2962;51.312;7.378;2023-04-25T08:39:01;5.77;;;2.60;;
5871;SDS011;2962;51.312;7.378;2023-04-25T08:41:27;9.13;;;2.50;;
5871;SDS011;2962;51.312;7.378;2023-04-25T08:43:53;20.53;;;2.17;;
5871;SDS011;2962;51.312;7.378;2023-04-25T08:46:20;4.20;;;2.00;;
5871;SDS011;2962;51.312;7.378;2023-04-25T08:48:46;8.43;;;2.40;;
5871;SDS011;2962;51.312;7.378;2023-04-25T08:51:15;10.50;;;2.43;;
5871;SDS011;2962;51.312;7.378;2023-04-25T08:53:50;4.80;;;1.90;;
5871;SDS011;2962;51.312;7.378;2023-04-25T08:56:17;7.53;;;1.50;;
5871;SDS011;2962;51.312;7.378;2023-04-25T08:58:45;6.43;;;2.20;;
5871;SDS011;2962;51.312;7.378;2023-04-25T09:01:13;4.70;;;1.80;;
5871;SDS011;2962;51.312;7.378;2023-04-25T09:03:38;7.63;;;1.90;;
5871;SDS011;2962;51.312;7.378;2023-04-25T09:06:04;6.00;;;1.47;;
5871;SDS011;2962;51.312;7.378;2023-04-25T09:08:29;6.87;;;1.50;;
5871;SDS011;2962;51.312;7.378;2023-04-25T09:10:55;4.63;;;2.40;;
5871;SDS011;2962;51.312;7.378;2023-04-25T09:13:24;3.43;;;1.93;;
5871;SDS011;2962;51.312;7.378;2023-04-25T09:15:52;9.67;;;2.03;;
5871;SDS011;2962;51.312;7.378;2023-04-25T09:20:54;5.40;;;2.00;;
5871;SDS011;2962;51.312;7.378;2023-04-25T09:23:22;6.80;;;2.47;;
5871;SDS011;2962;51.312;7.378;2023-04-25T09:25:48;8.50;;;2.60;;
5871;SDS011;2962;51.312;7.378;2023-04-25T09:28:15;7.20;;;1.40;;
5871;SDS011;2962;51.312;7.378;2023-04-25T09:30:41;13.70;;;1.60;;
5871;SDS011;2962;51.312;7.378;2023-04-25T09:33:07;2.70;;;2.30;;
5871;SDS011;2962;51.312;7.378;2023-04-25T09:35:51;11.60;;;1.83;;
5871;SDS011;2962;51.312;7.378;2023-04-25T09:38:20;6.30;;;2.13;;
5871;SDS011;2962;51.312;7.378;2023-04-25T09:40:47;3.60;;;1.27;;
5871;SDS011;2962;51.312;7.378;2023-04-25T09:43:21;5.00;;;1.60;;
5871;SDS011;2962;51.312;7.378;2023-04-25T09:45:48;4.50;;;1.70;;
5871;SDS011;2962;51.312;7.378;2023-04-25T09:48:20;4.87;;;1.60;;
5871;SDS011;2962;51.312;7.378;2023-04-25T09:51:03;5.63;;;1.40;;
5871;SDS011;2962;51.312;7.378;2023-04-25T09:53:28;3.57;;;1.20;;
5871;SDS011;2962;51.312;7.378;2023-04-25T09:55:54;7.80;;;1.13;;
5871;SDS011;2962;51.312;7.378;2023-04-25T09:58:21;12.10;;;1.80;;
5871;SDS011;2962;51.312;7.378;2023-04-25T10:00:49;7.50;;;1.30;;
5871;SDS011;2962;51.312;7.378;2023-04-25T10:03:15;5.87;;;1.50;;
5871;SDS011;2962;51.312;7.378;2023-04-25T10:05:43;7.00;;;1.60;;
5871;SDS011;2962;51.312;7.378;2023-04-25T10:08:08;8.33;;;2.40;;
5871;SDS011;2962;51.312;7.378;2023-04-25T10:10:35;2.90;;;1.37;;
5871;SDS011;2962;51.312;7.378;2023-04-25T10:13:03;5.20;;;1.33;;
5871;SDS011;2962;51.312;7.378;2023-04-25T10:15:30;4.40;;;1.70;;
5871;SDS011;2962;51.312;7.378;2023-04-25T10:18:00;7.77;;;2.00;;
5871;SDS011;2962;51.312;7.378;2023-04-25T10:20:25;6.00;;;1.67;;
5871;SDS011;2962;51.312;7.378;2023-04-25T10:22:51;1.10;;;1.10;;
5871;SDS011;2962;51.312;7.378;2023-04-25T10:25:21;2.23;;;1.47;;
5871;SDS011;2962;51.312;7.378;2023-04-25T10:27:49;4.83;;;1.17;;
5871;SDS011;2962;51.312;7.378;2023-04-25T10:30:16;9.10;;;1.10;;
5871;SDS011;2962;51.312;7.378;2023-04-25T10:32:43;6.70;;;1.47;;
5871;SDS011;2962;51.312;7.378;2023-04-25T10:35:13;4.13;;;1.40;;
5871;SDS011;2962;51.312;7.378;2023-04-25T10:37:57;4.47;;;1.27;;
5871;SDS011;2962;51.312;7.378;2023-04-25T10:40:28;2.47;;;0.97;;
5871;SDS011;2962;51.312;7.378;2023-04-25T10:42:54;4.07;;;1.27;;
5871;SDS011;2962;51.312;7.378;2023-04-25T10:45:20;1.90;;;1.07;;
5871;SDS011;2962;51.312;7.378;2023-04-25T10:47:46;18.13;;;1.63;;
5871;SDS011;2962;51.312;7.378;2023-04-25T10:50:11;5.60;;;1.57;;
5871;SDS011;2962;51.312;7.378;2023-04-25T10:52:39;1.80;;;1.20;;
5871;SDS011;2962;51.312;7.378;2023-04-25T10:55:05;3.70;;;1.20;;
5871;SDS011;2962;51.312;7.378;2023-04-25T10:57:39;9.07;;;1.60;;
5871;SDS011;2962;51.312;7.378;2023-04-25T11:00:05;4.37;;;1.57;;
5871;SDS011;2962;51.312;7.378;2023-04-25T11:02:37;2.93;;;1.63;;
5871;SDS011;2962;51.312;7.378;2023-04-25T11:05:03;3.73;;;1.73;;
5871;SDS011;2962;51.312;7.378;2023-04-25T11:07:33;2.40;;;2.20;;
5871;SDS011;2962;51.312;7.378;2023-04-25T11:10:11;3.40;;;1.27;;
5871;SDS011;2962;51.312;7.378;2023-04-25T11:12:36;4.90;;;1.70;;
5871;SDS011;2962;51.312;7.378;2023-04-25T11:15:03;2.77;;;1.10;;
5871;SDS011;2962;51.312;7.378;2023-04-25T11:17:29;6.37;;;1.50;;
5871;SDS011;2962;51.312;7.378;2023-04-25T11:19:55;0.70;;;0.70;;
5871;SDS011;2962;51.312;7.378;2023-04-25T11:22:21;2.80;;;1.37;;
5871;SDS011;2962;51.312;7.378;2023-04-25T11:24:47;1.30;;;1.20;;
5871;SDS011;2962;51.312;7.378;2023-04-25T11:27:12;1.73;;;1.13;;
5871;SDS011;2962;51.312;7.378;2023-04-25T11:29:38;6.23;;;0.93;;
5871;SDS011;2962;51.312;7.378;2023-04-25T11:32:03;9.53;;;1.30;;
5871;SDS011;2962;51.312;7.378;2023-04-25T11:34:29;2.50;;;1.20;;
5871;SDS011;2962;51.312;7.378;2023-04-25T11:36:56;5.23;;;1.23;;
5871;SDS011;2962;51.312;7.378;2023-04-25T11:39:23;5.90;;;0.77;;
5871;SDS011;2962;51.312;7.378;2023-04-25T11:41:49;3.13;;;1.30;;
5871;SDS011;2962;51.312;7.378;2023-04-25T11:44:18;4.97;;;1.27;;
5871;SDS011;2962;51.312;7.378;2023-04-25T11:46:45;2.10;;;1.10;;
5871;SDS011;2962;51.312;7.378;2023-04-25T11:49:11;6.23;;;1.57;;
5871;SDS011;2962;51.312;7.378;2023-04-25T11:51:40;1.83;;;1.63;;
5871;SDS011;2962;51.312;7.378;2023-04-25T11:54:09;4.80;;;1.50;;
5871;SDS011;2962;51.312;7.378;2023-04-25T11:56:36;2.93;;;1.50;;
5871;SDS011;2962;51.312;7.378;2023-04-25T11:59:03;5.60;;;1.40;;
5871;SDS011;2962;51.312;7.378;2023-04-25T12:01:30;4.90;;;1.57;;
5871;SDS011;2962;51.312;7.378;2023-04-25T12:03:55;7.20;;;1.60;;
5871;SDS011;2962;51.312;7.378;2023-04-25T12:06:21;3.13;;;1.30;;
5871;SDS011;2962;51.312;7.378;2023-04-25T12:08:59;2.10;;;1.57;;
5871;SDS011;2962;51.312;7.378;2023-04-25T12:11:29;1.43;;;1.33;;
5871;SDS011;2962;51.312;7.378;2023-04-25T12:13:56;6.87;;;1.80;;
5871;SDS011;2962;51.312;7.378;2023-04-25T12:16:27;2.37;;;1.27;;
5871;SDS011;2962;51.312;7.378;2023-04-25T12:18:52;6.77;;;1.90;;
5871;SDS011;2962;51.312;7.378;2023-04-25T12:21:20;2.20;;;1.20;;
5871;SDS011;2962;51.312;7.378;2023-04-25T12:23:45;2.80;;;1.30;;
5871;SDS011;2962;51.312;7.378;2023-04-25T12:26:11;5.07;;;1.40;;
5871;SDS011;2962;51.312;7.378;2023-04-25T12:28:36;1.40;;;1.33;;
5871;SDS011;2962;51.312;7.378;2023-04-25T12:31:02;1.70;;;1.00;;
5871;SDS011;2962;51.312;7.378;2023-04-25T12:33:33;5.30;;;1.30;;
5871;SDS011;2962;51.312;7.378;2023-04-25T12:35:59;0.93;;;0.93;;
5871;SDS011;2962;51.312;7.378;2023-04-25T12:38:34;1.90;;;1.20;;
5871;SDS011;2962;51.312;7.378;2023-04-25T12:41:01;3.03;;;1.40;;
5871;SDS011;2962;51.312;7.378;2023-04-25T12:43:27;2.20;;;2.00;;
5871;SDS011;2962;51.312;7.378;2023-04-25T12:45:53;3.13;;;1.60;;
5871;SDS011;2962;51.312;7.378;2023-04-25T12:48:20;2.23;;;1.07;;
5871;SDS011;2962;51.312;7.378;2023-04-25T12:50:46;0.80;;;0.63;;
5871;SDS011;2962;51.312;7.378;2023-04-25T12:53:14;1.70;;;0.80;;
5871;SDS011;2962;51.312;7.378;2023-04-25T12:55:40;1.40;;;1.40;;
5871;SDS011;2962;51.312;7.378;2023-04-25T12:58:05;2.93;;;1.33;;
5871;SDS011;2962;51.312;7.378;2023-04-25T13:00:30;4.73;;;1.20;;
5871;SDS011;2962;51.312;7.378;2023-04-25T13:02:56;2.37;;;1.30;;
5871;SDS011;2962;51.312;7.378;2023-04-25T13:05:22;3.93;;;1.17;;
5871;SDS011;2962;51.312;7.378;2023-04-25T13:07:47;6.73;;;1.00;;
5871;SDS011;2962;51.312;7.378;2023-04-25T13:10:12;1.60;;;1.23;;
5871;SDS011;2962;51.312;7.378;2023-04-25T13:12:38;3.53;;;1.37;;
5871;SDS011;2962;51.312;7.378;2023-04-25T13:15:03;8.33;;;1.40;;
5871;SDS011;2962;51.312;7.378;2023-04-25T13:17:29;3.07;;;1.07;;
5871;SDS011;2962;51.312;7.378;2023-04-25T13:19:54;1.07;;;1.07;;
5871;SDS011;2962;51.312;7.378;2023-04-25T13:22:20;4.23;;;1.10;;
5871;SDS011;2962;51.312;7.378;2023-04-25T13:24:45;4.33;;;1.53;;
5871;SDS011;2962;51.312;7.378;2023-04-25T13:27:11;5.17;;;1.20;;
5871;SDS011;2962;51.312;7.378;2023-04-25T13:29:37;5.53;;;1.40;;
5871;SDS011;2962;51.312;7.378;2023-04-25T13:32:05;2.97;;;1.23;;
5871;SDS011;2962;51.312;7.378;2023-04-25T13:34:31;2.17;;;1.30;;
5871;SDS011;2962;51.312;7.378;2023-04-25T13:36:56;1.77;;;1.07;;
5871;SDS011;2962;51.312;7.378;2023-04-25T13:39:21;3.87;;;1.20;;
5871;SDS011;2962;51.312;7.378;2023-04-25T13:41:47;2.77;;;1.20;;
5871;SDS011;2962;51.312;7.378;2023-04-25T13:44:12;2.63;;;1.20;;
5871;SDS011;2962;51.312;7.378;2023-04-25T13:46:38;2.10;;;1.10;;
5871;SDS011;2962;51.312;7.378;2023-04-25T13:49:03;2.40;;;1.30;;
5871;SDS011;2962;51.312;7.378;2023-04-25T13:51:29;1.43;;;1.07;;
5871;SDS011;2962;51.312;7.378;2023-04-25T13:53:55;0.90;;;0.90;;
5871;SDS011;2962;51.312;7.378;2023-04-25T13:56:21;1.50;;;1.03;;
5871;SDS011;2962;51.312;7.378;2023-04-25T13:58:48;3.43;;;1.53;;
5871;SDS011;2962;51.312;7.378;2023-04-25T14:01:13;1.60;;;1.07;;
5871;SDS011;2962;51.312;7.378;2023-04-25T14:28:15;3.90;;;1.20;;
5871;SDS011;2962;51.312;7.378;2023-04-25T14:30:40;1.60;;;1.10;;
5871;SDS011;2962;51.312;7.378;2023-04-25T14:33:05;6.80;;;1.53;;
5871;SDS011;2962;51.312;7.378;2023-04-25T14:35:31;2.83;;;1.37;;
5871;SDS011;2962;51.312;7.378;2023-04-25T14:37:56;1.40;;;1.30;;
5871;SDS011;2962;51.312;7.378;2023-04-25T14:40:21;3.03;;;0.80;;
5871;SDS011;2962;51.312;7.378;2023-04-25T14:42:48;5.63;;;1.00;;
5871;SDS011;2962;51.312;7.378;2023-04-25T14:45:13;2.30;;;0.87;;
5871;SDS011;2962;51.312;7.378;2023-04-25T14:47:39;1.17;;;0.67;;
5871;SDS011;2962;51.312;7.378;2023-04-25T14:50:05;2.30;;;0.67;;
5871;SDS011;2962;51.312;7.378;2023-04-25T14:52:32;0.60;;;0.60;;
5871;SDS011;2962;51.312;7.378;2023-04-25T14:54:57;0.80;;;0.80;;
5871;SDS011;2962;51.312;7.378;2023-04-25T14:57:22;1.70;;;0.97;;
5871;SDS011;2962;51.312;7.378;2023-04-25T14:59:47;1.40;;;0.90;;
5871;SDS011;2962;51.312;7.378;2023-04-25T15:02:13;1.17;;;1.03;;
5871;SDS011;2962;51.312;7.378;2023-04-25T15:04:44;1.40;;;1.00;;
5871;SDS011;2962;51.312;7.378;2023-04-25T15:07:09;1.20;;;1.20;;
5871;SDS011;2962;51.312;7.378;2023-04-25T15:09:35;1.33;;;0.60;;
5871;SDS011;2962;51.312;7.378;2023-04-25T15:12:00;1.27;;;1.13;;
5871;SDS011;2962;51.312;7.378;2023-04-25T15:14:26;2.40;;;1.23;;
5871;SDS011;2962;51.312;7.378;2023-04-25T15:16:52;1.97;;;1.33;;
5871;SDS011;2962;51.312;7.378;2023-04-25T15:19:17;1.00;;;0.90;;
5871;SDS011;2962;51.312;7.378;2023-04-25T15:21:42;2.53;;;1.23;;
5871;SDS011;2962;51.312;7.378;2023-04-25T15:24:08;1.50;;;0.70;;
5871;SDS011;2962;51.312;7.378;2023-04-25T15:26:33;1.50;;;0.80;;